Van Wert, Ohio
Current Conditions -  °F | °C
As of 1:31 PM on Thursday 29 Jan 2015 (Local Time) from KAXV Reporting Station
Overcast Overcast  
Wind Chill: 29°   Ceiling: 1400
Heat Index: 37°   Visibility: 10mi
Dew Point: 36°   Wind: 14mph
Humidity: 93%   Direction: 240°WSW
Pressure: 29.77"   Gusts: NA
Location:  40.87°N, 84.58°W
Report Text: KAXV 291831Z AUTO 24012KT 10SM BKN014 OVC019 03/02 A2977 RMK AO2
Loading
Personal Weather Stations






























Interactive Weather Map New forecast layout! Learn more

10-Day Weather Forecast

Advertisements
Track Severe Weather on mobile